sensor_id;sensor_type;location;lat;lon;timestamp;temperature;humidity
8856;DHT22;4464;50.882;4.730;2022-08-21T00:01:52;16.70;99.90
8856;DHT22;4464;50.882;4.730;2022-08-21T00:04:18;16.70;99.90
8856;DHT22;4464;50.882;4.730;2022-08-21T00:06:44;16.60;99.90
8856;DHT22;4464;50.882;4.730;2022-08-21T00:09:10;16.70;99.90
8856;DHT22;4464;50.882;4.730;2022-08-21T00:11:37;16.70;99.90
8856;DHT22;4464;50.882;4.730;2022-08-21T00:14:10;16.80;99.90
8856;DHT22;4464;50.882;4.730;2022-08-21T00:16:36;16.70;99.90
8856;DHT22;4464;50.882;4.730;2022-08-21T00:19:03;16.70;99.90
8856;DHT22;4464;50.882;4.730;2022-08-21T00:21:29;16.60;99.90
8856;DHT22;4464;50.882;4.730;2022-08-21T00:23:55;16.60;99.90
8856;DHT22;4464;50.882;4.730;2022-08-21T00:26:21;16.40;99.90
8856;DHT22;4464;50.882;4.730;2022-08-21T00:28:46;16.50;99.90
8856;DHT22;4464;50.882;4.730;2022-08-21T00:31:14;16.40;99.90
8856;DHT22;4464;50.882;4.730;2022-08-21T00:33:43;16.40;99.90
8856;DHT22;4464;50.882;4.730;2022-08-21T00:36:10;16.40;99.90
8856;DHT22;4464;50.882;4.730;2022-08-21T00:38:38;16.40;99.90
8856;DHT22;4464;50.882;4.730;2022-08-21T00:41:07;16.30;99.90
8856;DHT22;4464;50.882;4.730;2022-08-21T00:43:36;16.20;99.90
8856;DHT22;4464;50.882;4.730;2022-08-21T00:46:03;16.20;99.90
8856;DHT22;4464;50.882;4.730;2022-08-21T00:48:32;16.20;99.90
8856;DHT22;4464;50.882;4.730;2022-08-21T00:53:29;16.20;99.90
8856;DHT22;4464;50.882;4.730;2022-08-21T00:55:57;16.20;99.90
8856;DHT22;4464;50.882;4.730;2022-08-21T00:58:23;16.20;99.90
8856;DHT22;4464;50.882;4.730;2022-08-21T01:00:51;16.20;99.90
8856;DHT22;4464;50.882;4.730;2022-08-21T01:03:22;16.10;99.90
8856;DHT22;4464;50.882;4.730;2022-08-21T01:05:48;16.10;99.90
8856;DHT22;4464;50.882;4.730;2022-08-21T01:08:16;16.00;99.90
8856;DHT22;4464;50.882;4.730;2022-08-21T01:10:44;16.00;99.90
8856;DHT22;4464;50.882;4.730;2022-08-21T01:13:11;16.20;99.90
8856;DHT22;4464;50.882;4.730;2022-08-21T01:15:44;16.00;99.90
8856;DHT22;4464;50.882;4.730;2022-08-21T01:18:11;16.00;99.90
8856;DHT22;4464;50.882;4.730;2022-08-21T01:20:41;16.00;99.90
8856;DHT22;4464;50.882;4.730;2022-08-21T01:23:07;16.00;99.90
8856;DHT22;4464;50.882;4.730;2022-08-21T01:25:35;15.90;99.90
8856;DHT22;4464;50.882;4.730;2022-08-21T01:28:06;15.90;99.90
8856;DHT22;4464;50.882;4.730;2022-08-21T01:30:35;15.80;99.90
8856;DHT22;4464;50.882;4.730;2022-08-21T01:33:02;15.70;99.90
8856;DHT22;4464;50.882;4.730;2022-08-21T01:35:31;15.70;99.90
8856;DHT22;4464;50.882;4.730;2022-08-21T01:37:57;15.60;99.90
8856;DHT22;4464;50.882;4.730;2022-08-21T01:40:23;15.70;99.90
8856;DHT22;4464;50.882;4.730;2022-08-21T01:42:48;15.60;99.90
8856;DHT22;4464;50.882;4.730;2022-08-21T09:27:07;26.60;99.90
8856;DHT22;4464;50.882;4.730;2022-08-21T09:29:39;26.20;99.90
8856;DHT22;4464;50.882;4.730;2022-08-21T09:32:23;25.90;99.90
8856;DHT22;4464;50.882;4.730;2022-08-21T09:34:57;26.40;99.90
8856;DHT22;4464;50.882;4.730;2022-08-21T09:37:25;25.80;99.90
8856;DHT22;4464;50.882;4.730;2022-08-21T09:39:51;26.10;99.90
8856;DHT22;4464;50.882;4.730;2022-08-21T09:42:26;26.00;99.90
8856;DHT22;4464;50.882;4.730;2022-08-21T09:45:12;26.00;99.90
8856;DHT22;4464;50.882;4.730;2022-08-21T09:47:40;26.40;99.90
8856;DHT22;4464;50.882;4.730;2022-08-21T09:50:16;27.00;99.90
8856;DHT22;4464;50.882;4.730;2022-08-21T09:55:38;27.30;99.90
8856;DHT22;4464;50.882;4.730;2022-08-21T09:58:33;27.60;99.90
8856;DHT22;4464;50.882;4.730;2022-08-21T10:01:04;28.20;99.90
8856;DHT22;4464;50.882;4.730;2022-08-21T10:03:30;29.10;99.90
8856;DHT22;4464;50.882;4.730;2022-08-21T10:06:00;29.40;99.90
8856;DHT22;4464;50.882;4.730;2022-08-21T10:08:29;29.50;99.90
8856;DHT22;4464;50.882;4.730;2022-08-21T10:11:08;28.90;99.90
8856;DHT22;4464;50.882;4.730;2022-08-21T10:19:02;25.40;99.90
8856;DHT22;4464;50.882;4.730;2022-08-21T10:21:49;24.50;99.90
8856;DHT22;4464;50.882;4.730;2022-08-21T10:24:31;24.80;99.90
8856;DHT22;4464;50.882;4.730;2022-08-21T10:27:13;25.60;99.90
8856;DHT22;4464;50.882;4.730;2022-08-21T10:30:02;25.40;99.90
8856;DHT22;4464;50.882;4.730;2022-08-21T10:35:37;24.10;99.90
8856;DHT22;4464;50.882;4.730;2022-08-21T10:40:59;25.70;99.90
8856;DHT22;4464;50.882;4.730;2022-08-21T10:43:55;27.20;99.90
8856;DHT22;4464;50.882;4.730;2022-08-21T10:46:42;27.90;99.90
8856;DHT22;4464;50.882;4.730;2022-08-21T10:57:23;26.90;99.90
8856;DHT22;4464;50.882;4.730;2022-08-21T11:00:04;26.60;99.90
8856;DHT22;4464;50.882;4.730;2022-08-21T11:02:50;25.50;99.90
8856;DHT22;4464;50.882;4.730;2022-08-21T11:05:42;24.70;99.90
8856;DHT22;4464;50.882;4.730;2022-08-21T11:08:18;24.40;99.90
8856;DHT22;4464;50.882;4.730;2022-08-21T11:13:32;24.70;99.90
8856;DHT22;4464;50.882;4.730;2022-08-21T11:21:38;27.90;99.90
8856;DHT22;4464;50.882;4.730;2022-08-21T11:24:30;28.00;99.90
8856;DHT22;4464;50.882;4.730;2022-08-21T11:29:52;27.50;99.90
8856;DHT22;4464;50.882;4.730;2022-08-21T11:35:46;27.70;99.90
8856;DHT22;4464;50.882;4.730;2022-08-21T11:38:26;27.60;99.90
8856;DHT22;4464;50.882;4.730;2022-08-21T11:41:30;26.90;99.90
8856;DHT22;4464;50.882;4.730;2022-08-21T11:46:47;26.40;99.90
8856;DHT22;4464;50.882;4.730;2022-08-21T11:49:31;26.60;99.90
8856;DHT22;4464;50.882;4.730;2022-08-21T11:54:40;26.60;99.90
8856;DHT22;4464;50.882;4.730;2022-08-21T12:03:36;27.10;99.90
8856;DHT22;4464;50.882;4.730;2022-08-21T12:06:10;27.50;99.90
8856;DHT22;4464;50.882;4.730;2022-08-21T12:08:40;28.00;99.90
8856;DHT22;4464;50.882;4.730;2022-08-21T12:11:08;28.80;99.90
8856;DHT22;4464;50.882;4.730;2022-08-21T12:13:39;29.70;99.90
8856;DHT22;4464;50.882;4.730;2022-08-21T12:16:38;29.90;99.90
8856;DHT22;4464;50.882;4.730;2022-08-21T12:21:58;30.20;99.90
8856;DHT22;4464;50.882;4.730;2022-08-21T12:26:58;31.70;99.90
8856;DHT22;4464;50.882;4.730;2022-08-21T12:29:32;29.80;99.90
8856;DHT22;4464;50.882;4.730;2022-08-21T12:34:56;30.90;99.90
8856;DHT22;4464;50.882;4.730;2022-08-21T12:42:28;33.10;99.90
8856;DHT22;4464;50.882;4.730;2022-08-21T12:45:04;33.80;99.90
8856;DHT22;4464;50.882;4.730;2022-08-21T12:47:36;32.60;99.90
8856;DHT22;4464;50.882;4.730;2022-08-21T12:50:17;31.10;99.90
8856;DHT22;4464;50.882;4.730;2022-08-21T12:53:09;31.10;99.90
8856;DHT22;4464;50.882;4.730;2022-08-21T12:55:42;30.30;99.90
8856;DHT22;4464;50.882;4.730;2022-08-21T12:58:21;29.40;99.90
8856;DHT22;4464;50.882;4.730;2022-08-21T13:00:52;29.40;99.90
8856;DHT22;4464;50.882;4.730;2022-08-21T13:03:19;29.90;99.90
8856;DHT22;4464;50.882;4.730;2022-08-21T13:05:45;31.30;99.90
8856;DHT22;4464;50.882;4.730;2022-08-21T13:08:12;31.40;99.90
8856;DHT22;4464;50.882;4.730;2022-08-21T13:10:40;31.70;99.90
8856;DHT22;4464;50.882;4.730;2022-08-21T13:13:11;33.30;99.70
8856;DHT22;4464;50.882;4.730;2022-08-21T13:15:40;34.60;98.60
8856;DHT22;4464;50.882;4.730;2022-08-21T13:18:07;34.40;98.00
8856;DHT22;4464;50.882;4.730;2022-08-21T13:20:38;32.60;98.90
8856;DHT22;4464;50.882;4.730;2022-08-21T13:23:23;31.00;99.90
8856;DHT22;4464;50.882;4.730;2022-08-21T13:25:50;29.10;99.90
8856;DHT22;4464;50.882;4.730;2022-08-21T13:28:17;27.90;99.90
8856;DHT22;4464;50.882;4.730;2022-08-21T13:30:56;27.60;99.90
8856;DHT22;4464;50.882;4.730;2022-08-21T13:33:25;27.10;99.90
8856;DHT22;4464;50.882;4.730;2022-08-21T13:36:07;27.10;99.90
8856;DHT22;4464;50.882;4.730;2022-08-21T13:38:37;27.30;99.90
8856;DHT22;4464;50.882;4.730;2022-08-21T13:41:06;27.80;99.90
8856;DHT22;4464;50.882;4.730;2022-08-21T13:43:36;28.30;99.90
8856;DHT22;4464;50.882;4.730;2022-08-21T13:46:07;28.50;99.90
8856;DHT22;4464;50.882;4.730;2022-08-21T13:48:35;29.30;99.90
8856;DHT22;4464;50.882;4.730;2022-08-21T13:51:03;29.70;99.90
8856;DHT22;4464;50.882;4.730;2022-08-21T13:58:26;29.90;99.90
8856;DHT22;4464;50.882;4.730;2022-08-21T14:00:54;30.00;99.90
8856;DHT22;4464;50.882;4.730;2022-08-21T14:03:38;28.80;99.90
8856;DHT22;4464;50.882;4.730;2022-08-21T14:06:34;28.50;99.90
8856;DHT22;4464;50.882;4.730;2022-08-21T14:09:33;28.40;99.90
8856;DHT22;4464;50.882;4.730;2022-08-21T14:12:00;28.20;99.90
8856;DHT22;4464;50.882;4.730;2022-08-21T14:14:33;28.10;99.90
8856;DHT22;4464;50.882;4.730;2022-08-21T14:17:05;28.10;99.90
8856;DHT22;4464;50.882;4.730;2022-08-21T14:42:17;25.40;99.90
8856;DHT22;4464;50.882;4.730;2022-08-21T14:44:43;25.70;99.90
8856;DHT22;4464;50.882;4.730;2022-08-21T14:47:09;25.70;99.90
8856;DHT22;4464;50.882;4.730;2022-08-21T14:49:35;25.70;99.90
8856;DHT22;4464;50.882;4.730;2022-08-21T14:52:01;25.70;99.90
8856;DHT22;4464;50.882;4.730;2022-08-21T14:54:31;25.80;99.90
8856;DHT22;4464;50.882;4.730;2022-08-21T14:57:00;25.70;99.90
8856;DHT22;4464;50.882;4.730;2022-08-21T14:59:27;25.50;99.90
8856;DHT22;4464;50.882;4.730;2022-08-21T15:01:53;25.60;99.90
8856;DHT22;4464;50.882;4.730;2022-08-21T15:04:19;25.50;99.90
8856;DHT22;4464;50.882;4.730;2022-08-21T15:06:45;25.60;99.90
8856;DHT22;4464;50.882;4.730;2022-08-21T15:09:11;25.50;99.90
8856;DHT22;4464;50.882;4.730;2022-08-21T15:11:37;25.40;99.90
8856;DHT22;4464;50.882;4.730;2022-08-21T15:14:07;25.50;99.90
8856;DHT22;4464;50.882;4.730;2022-08-21T15:16:34;25.80;99.90
8856;DHT22;4464;50.882;4.730;2022-08-21T15:19:01;25.90;99.90
8856;DHT22;4464;50.882;4.730;2022-08-21T15:21:29;25.60;99.90
8856;DHT22;4464;50.882;4.730;2022-08-21T15:23:57;25.80;99.90
8856;DHT22;4464;50.882;4.730;2022-08-21T15:26:26;26.00;99.90
8856;DHT22;4464;50.882;4.730;2022-08-21T15:28:55;26.00;99.90
8856;DHT22;4464;50.882;4.730;2022-08-21T15:31:20;26.10;99.90
8856;DHT22;4464;50.882;4.730;2022-08-21T15:33:46;26.10;99.90
8856;DHT22;4464;50.882;4.730;2022-08-21T15:36:12;26.00;99.90
8856;DHT22;4464;50.882;4.730;2022-08-21T15:38:40;26.10;99.90
8856;DHT22;4464;50.882;4.730;2022-08-21T15:41:07;26.30;99.90
8856;DHT22;4464;50.882;4.730;2022-08-21T15:43:43;26.30;99.90
8856;DHT22;4464;50.882;4.730;2022-08-21T15:48:39;26.10;99.90
8856;DHT22;4464;50.882;4.730;2022-08-21T15:51:05;25.90;99.90
8856;DHT22;4464;50.882;4.730;2022-08-21T15:53:30;25.70;99.90
8856;DHT22;4464;50.882;4.730;2022-08-21T15:56:04;25.70;99.90
8856;DHT22;4464;50.882;4.730;2022-08-21T15:58:30;25.60;99.90
8856;DHT22;4464;50.882;4.730;2022-08-21T16:01:00;25.40;99.90
8856;DHT22;4464;50.882;4.730;2022-08-21T16:03:27;25.40;99.90
8856;DHT22;4464;50.882;4.730;2022-08-21T16:05:56;25.30;99.90
8856;DHT22;4464;50.882;4.730;2022-08-21T16:08:24;25.20;99.90
8856;DHT22;4464;50.882;4.730;2022-08-21T16:10:52;25.20;99.90
8856;DHT22;4464;50.882;4.730;2022-08-21T16:13:24;25.20;99.90
8856;DHT22;4464;50.882;4.730;2022-08-21T16:15:51;25.10;99.90
8856;DHT22;4464;50.882;4.730;2022-08-21T16:18:19;25.10;99.90
8856;DHT22;4464;50.882;4.730;2022-08-21T16:20:47;25.00;99.90
8856;DHT22;4464;50.882;4.730;2022-08-21T16:23:16;24.90;99.90
8856;DHT22;4464;50.882;4.730;2022-08-21T16:25:42;24.90;99.90
8856;DHT22;4464;50.882;4.730;2022-08-21T16:30:45;24.90;99.90
8856;DHT22;4464;50.882;4.730;2022-08-21T16:33:38;24.90;99.90
8856;DHT22;4464;50.882;4.730;2022-08-21T16:36:07;24.80;99.90
8856;DHT22;4464;50.882;4.730;2022-08-21T16:38:34;24.80;99.90
8856;DHT22;4464;50.882;4.730;2022-08-21T16:41:07;24.80;99.90
8856;DHT22;4464;50.882;4.730;2022-08-21T16:43:33;24.70;99.90
8856;DHT22;4464;50.882;4.730;2022-08-21T16:48:28;24.50;99.90
8856;DHT22;4464;50.882;4.730;2022-08-21T16:50:55;24.50;99.90
8856;DHT22;4464;50.882;4.730;2022-08-21T16:53:22;24.50;99.90
8856;DHT22;4464;50.882;4.730;2022-08-21T16:55:50;24.50;99.90
8856;DHT22;4464;50.882;4.730;2022-08-21T17:00:49;24.30;99.90
8856;DHT22;4464;50.882;4.730;2022-08-21T17:03:17;24.30;99.90
8856;DHT22;4464;50.882;4.730;2022-08-21T17:05:46;24.40;99.90
8856;DHT22;4464;50.882;4.730;2022-08-21T17:35:20;24.30;99.90
8856;DHT22;4464;50.882;4.730;2022-08-21T17:45:15;24.50;99.90
8856;DHT22;4464;50.882;4.730;2022-08-21T18:34:32;22.90;99.90
